createdAt,value
2017-06-02T00:00:39.414Z,0
2017-06-02T00:01:38.763Z,0
2017-06-02T00:02:39.387Z,0
2017-06-02T00:03:39.394Z,0
2017-06-02T00:04:38.766Z,0
2017-06-02T00:05:38.722Z,0
2017-06-02T00:06:39.387Z,0
2017-06-02T00:07:39.049Z,0
2017-06-02T00:08:38.698Z,0
2017-06-02T00:09:38.749Z,0
2017-06-02T00:10:39.075Z,0
2017-06-02T00:11:39.018Z,0
2017-06-02T00:12:38.050Z,0
2017-06-02T00:13:38.694Z,0
2017-06-02T00:14:38.981Z,0
2017-06-02T00:15:38.658Z,0
2017-06-02T00:16:38.645Z,0
2017-06-02T00:17:39.298Z,0
2017-06-02T00:18:39.297Z,0
2017-06-02T00:19:38.306Z,0
2017-06-02T00:20:38.940Z,0
2017-06-02T00:21:39.265Z,0
2017-06-02T00:22:39.269Z,0
2017-06-02T00:23:38.599Z,0
2017-06-02T00:24:38.591Z,0
2017-06-02T00:25:38.897Z,0
2017-06-02T00:26:38.591Z,0
2017-06-02T00:27:38.614Z,0
2017-06-02T00:28:38.590Z,0
2017-06-02T00:29:38.565Z,0
2017-06-02T00:30:38.285Z,0
2017-06-02T00:31:38.211Z,0
2017-06-02T00:32:38.531Z,0
2017-06-02T00:33:38.537Z,0
2017-06-02T00:34:38.544Z,0
2017-06-02T00:35:39.164Z,0
2017-06-02T00:36:38.531Z,0
2017-06-02T00:37:39.134Z,0
2017-06-02T00:38:38.807Z,0
2017-06-02T00:39:38.799Z,0
2017-06-02T00:40:39.136Z,0
2017-06-02T00:41:39.110Z,0
2017-06-02T00:42:38.791Z,0
2017-06-02T00:43:38.456Z,0
2017-06-02T00:44:38.764Z,0
2017-06-02T00:45:38.444Z,0
2017-06-02T00:46:38.459Z,0
2017-06-02T00:47:37.769Z,0
2017-06-02T00:48:38.095Z,0
2017-06-02T00:49:38.445Z,0
2017-06-02T00:50:38.071Z,0
2017-06-02T00:51:38.719Z,0
2017-06-02T00:52:38.380Z,0
2017-06-02T00:53:38.396Z,0
2017-06-02T00:54:38.695Z,0
2017-06-02T00:55:39.007Z,0
2017-06-02T00:56:39.039Z,0
2017-06-02T00:57:38.989Z,0
2017-06-02T00:58:38.352Z,0
2017-06-02T00:59:38.693Z,0
2017-06-02T01:00:38.660Z,0
2017-06-02T01:01:38.311Z,0
2017-06-02T01:02:38.343Z,0
2017-06-02T01:03:38.982Z,0
2017-06-02T01:04:37.965Z,0
2017-06-02T01:05:38.279Z,0
2017-06-02T01:06:38.296Z,0
2017-06-02T01:07:37.975Z,0
2017-06-02T01:08:38.582Z,0
2017-06-02T01:09:38.267Z,0
2017-06-02T01:10:38.891Z,0
2017-06-02T01:11:38.268Z,0
2017-06-02T01:12:38.587Z,0
2017-06-02T01:13:38.857Z,0
2017-06-02T01:14:37.898Z,0
2017-06-02T01:15:38.871Z,0
2017-06-02T01:16:38.519Z,0
2017-06-02T01:17:38.829Z,0
2017-06-02T01:18:38.848Z,0
2017-06-02T01:19:38.815Z,0
2017-06-02T01:20:38.165Z,0
2017-06-02T01:21:38.814Z,0
2017-06-02T01:22:38.150Z,0
2017-06-02T01:23:38.140Z,0
2017-06-02T01:24:38.152Z,0
2017-06-02T01:25:38.805Z,0
2017-06-02T01:26:38.448Z,0
2017-06-02T01:27:38.115Z,0
2017-06-02T01:28:38.740Z,0
2017-06-02T01:29:38.444Z,0
2017-06-02T01:30:38.733Z,0
2017-06-02T01:31:37.450Z,0
2017-06-02T01:32:38.399Z,0
2017-06-02T01:33:38.747Z,0
2017-06-02T01:34:38.426Z,0
2017-06-02T01:35:38.721Z,0
2017-06-02T01:36:38.606Z,0
2017-06-02T01:37:38.031Z,0
2017-06-02T01:38:38.344Z,0
2017-06-02T01:39:38.351Z,0
2017-06-02T01:40:38.675Z,0
2017-06-02T01:41:38.673Z,0
2017-06-02T01:42:38.631Z,0
2017-06-02T01:43:38.638Z,0
2017-06-02T01:44:37.972Z,0
2017-06-02T01:45:37.677Z,0
2017-06-02T01:46:37.958Z,0
2017-06-02T01:47:37.954Z,0
2017-06-02T01:48:37.622Z,0
2017-06-02T01:49:38.309Z,0
2017-06-02T01:50:38.254Z,0
2017-06-02T01:51:37.921Z,0
2017-06-02T01:52:38.257Z,0
2017-06-02T01:53:38.227Z,0
2017-06-02T01:54:38.245Z,0
2017-06-02T01:55:37.891Z,0
2017-06-02T01:56:37.906Z,0
2017-06-02T01:57:38.193Z,0
2017-06-02T01:58:37.872Z,0
2017-06-02T01:59:38.177Z,0
2017-06-02T02:00:38.508Z,0
2017-06-02T02:01:37.863Z,0
2017-06-02T02:02:37.859Z,0
2017-06-02T02:03:38.556Z,0
2017-06-02T02:04:37.502Z,0
2017-06-02T02:05:37.856Z,0
2017-06-02T02:06:37.846Z,0
2017-06-02T02:07:38.131Z,0
2017-06-02T02:08:38.429Z,0
2017-06-02T02:09:38.431Z,0
2017-06-02T02:10:37.453Z,0
2017-06-02T02:11:37.434Z,0
2017-06-02T02:12:37.745Z,0
2017-06-02T02:13:38.075Z,0
2017-06-02T02:14:38.097Z,0
2017-06-02T02:15:37.725Z,0
2017-06-02T02:16:38.047Z,0
2017-06-02T02:17:37.386Z,0
2017-06-02T02:18:37.429Z,0
2017-06-02T02:19:37.727Z,0
2017-06-02T02:20:38.318Z,0
2017-06-02T02:21:38.657Z,0
2017-06-02T02:22:37.668Z,0
2017-06-02T02:23:37.664Z,0
2017-06-02T02:24:37.972Z,0
2017-06-02T02:25:37.977Z,0
2017-06-02T02:26:37.631Z,0
2017-06-02T02:27:38.286Z,0
2017-06-02T02:28:37.310Z,0
2017-06-02T02:29:38.274Z,0
2017-06-02T02:30:37.297Z,0
2017-06-02T02:31:37.920Z,0
2017-06-02T02:32:37.264Z,0
2017-06-02T02:33:37.251Z,0
2017-06-02T02:34:37.920Z,0
2017-06-02T02:35:37.908Z,0
2017-06-02T02:36:37.590Z,0
2017-06-02T02:37:37.885Z,0
2017-06-02T02:38:37.879Z,0
2017-06-02T02:39:37.853Z,0
2017-06-02T02:40:37.843Z,0
2017-06-02T02:41:37.861Z,0
2017-06-02T02:42:37.185Z,0
2017-06-02T02:43:37.529Z,0
2017-06-02T02:44:38.137Z,0
2017-06-02T02:45:37.169Z,0
2017-06-02T02:46:38.136Z,0
2017-06-02T02:47:37.488Z,0
2017-06-02T02:48:37.788Z,0
2017-06-02T02:49:37.138Z,0
2017-06-02T02:50:37.475Z,0
2017-06-02T02:51:37.775Z,0
2017-06-02T02:52:37.741Z,0
2017-06-02T02:53:38.075Z,0
2017-06-02T02:54:37.726Z,0
2017-06-02T02:55:37.733Z,0
2017-06-02T02:56:37.724Z,0
2017-06-02T02:57:37.380Z,5
2017-06-02T02:58:37.386Z,5
2017-06-02T02:59:37.685Z,5
2017-06-02T03:00:38.048Z,5
2017-06-02T03:01:37.663Z,5
2017-06-02T03:02:37.656Z,5
2017-06-02T03:03:37.856Z,5
2017-06-02T03:04:37.336Z,5
2017-06-02T03:05:37.661Z,5
2017-06-02T03:06:37.645Z,5
2017-06-02T03:07:37.627Z,10
2017-06-02T03:08:37.936Z,10
2017-06-02T03:09:37.931Z,10
2017-06-02T03:10:37.299Z,10
2017-06-02T03:11:37.262Z,10
2017-06-02T03:12:37.579Z,10
2017-06-02T03:13:37.644Z,10
2017-06-02T03:14:37.277Z,15
2017-06-02T03:15:37.788Z,15
2017-06-02T03:16:37.575Z,15
2017-06-02T03:17:37.542Z,15
2017-06-02T03:18:37.850Z,15
2017-06-02T03:19:37.846Z,15
2017-06-02T03:20:37.561Z,20
2017-06-02T03:21:37.498Z,20
2017-06-02T03:22:37.495Z,20
2017-06-02T03:23:37.483Z,20
2017-06-02T03:24:37.830Z,20
2017-06-02T03:25:37.834Z,25
2017-06-02T03:26:37.461Z,25
2017-06-02T03:27:37.473Z,25
2017-06-02T03:28:37.139Z,25
2017-06-02T03:29:37.464Z,30
2017-06-02T03:30:37.767Z,30
2017-06-02T03:31:37.415Z,30
2017-06-02T03:32:37.732Z,30
2017-06-02T03:33:37.401Z,30
2017-06-02T03:34:37.398Z,35
2017-06-02T03:35:37.398Z,35
2017-06-02T03:36:37.071Z,35
2017-06-02T03:37:37.370Z,35
2017-06-02T03:38:37.367Z,35
2017-06-02T03:39:37.742Z,40
2017-06-02T03:40:37.432Z,40
2017-06-02T03:41:37.355Z,40
2017-06-02T03:42:37.017Z,40
2017-06-02T03:43:37.349Z,40
2017-06-02T03:44:37.315Z,45
2017-06-02T03:45:37.320Z,45
2017-06-02T03:46:36.999Z,45
2017-06-02T03:47:36.643Z,45
2017-06-02T03:48:36.955Z,45
2017-06-02T03:49:36.942Z,45
2017-06-02T03:50:37.262Z,50
2017-06-02T03:51:37.254Z,50
2017-06-02T03:52:37.260Z,50
2017-06-02T03:53:37.563Z,50
2017-06-02T03:54:36.581Z,50
2017-06-02T03:55:36.594Z,50
2017-06-02T03:56:37.545Z,55
2017-06-02T03:57:36.900Z,55
2017-06-02T03:58:37.581Z,55
2017-06-02T03:59:36.877Z,55
2017-06-02T04:00:37.497Z,55
2017-06-02T04:01:36.538Z,55
2017-06-02T04:02:36.837Z,60
2017-06-02T04:03:36.831Z,60
2017-06-02T04:04:37.493Z,60
2017-06-02T04:05:37.146Z,60
2017-06-02T04:06:36.497Z,60
2017-06-02T04:07:37.133Z,60
2017-06-02T04:08:36.809Z,65
2017-06-02T04:09:36.151Z,65
2017-06-02T04:10:36.481Z,65
2017-06-02T04:11:37.106Z,65
2017-06-02T04:12:36.790Z,65
2017-06-02T04:13:37.071Z,65
2017-06-02T04:14:37.387Z,65
2017-06-02T04:15:37.055Z,70
2017-06-02T04:16:37.407Z,70
2017-06-02T04:17:36.717Z,70
2017-06-02T04:18:37.031Z,70
2017-06-02T04:19:36.377Z,70
2017-06-02T04:20:36.381Z,70
2017-06-02T04:21:36.386Z,75
2017-06-02T04:22:37.031Z,75
2017-06-02T04:23:37.001Z,75
2017-06-02T04:24:36.981Z,75
2017-06-02T04:25:36.987Z,75
2017-06-02T04:26:36.652Z,80
2017-06-02T04:27:37.334Z,80
2017-06-02T04:28:37.040Z,80
2017-06-02T04:29:37.313Z,80
2017-06-02T04:30:36.627Z,85
2017-06-02T04:31:36.282Z,85
2017-06-02T04:32:36.631Z,85
2017-06-02T04:33:36.939Z,85
2017-06-02T04:34:36.899Z,90
2017-06-02T04:35:36.568Z,90
2017-06-02T04:36:37.210Z,90
2017-06-02T04:37:37.246Z,95
2017-06-02T04:38:36.548Z,95
2017-06-02T04:39:36.955Z,95
2017-06-02T04:40:37.175Z,95
2017-06-02T04:41:36.610Z,100
2017-06-02T04:42:36.876Z,100
2017-06-02T04:43:36.825Z,100
2017-06-02T04:44:36.499Z,100
2017-06-02T04:45:36.500Z,105
2017-06-02T04:46:35.844Z,105
2017-06-02T04:47:37.035Z,105
2017-06-02T04:48:36.785Z,110
2017-06-02T04:49:36.465Z,110
2017-06-02T04:50:37.122Z,110
2017-06-02T04:51:36.769Z,110
2017-06-02T04:52:36.761Z,110
2017-06-02T04:53:36.762Z,110
2017-06-02T04:54:36.739Z,110
2017-06-02T04:55:36.751Z,110
2017-06-02T04:56:36.728Z,115
2017-06-02T04:57:36.717Z,115
2017-06-02T04:58:36.710Z,115
2017-06-02T04:59:36.392Z,115
2017-06-02T05:00:36.707Z,120
2017-06-02T05:01:37.071Z,120
2017-06-02T05:02:36.072Z,120
2017-06-02T05:03:36.371Z,120
2017-06-02T05:04:36.359Z,125
2017-06-02T05:05:36.991Z,125
2017-06-02T05:06:36.974Z,125
2017-06-02T05:07:36.389Z,130
2017-06-02T05:08:36.318Z,130
2017-06-02T05:09:36.990Z,130
2017-06-02T05:10:36.625Z,130
2017-06-02T05:11:36.945Z,135
2017-06-02T05:12:36.333Z,135
2017-06-02T05:13:36.295Z,135
2017-06-02T05:14:35.955Z,135
2017-06-02T05:15:36.299Z,140
2017-06-02T05:16:36.266Z,140
2017-06-02T05:17:35.947Z,140
2017-06-02T05:18:36.570Z,145
2017-06-02T05:19:36.255Z,145
2017-06-02T05:20:36.237Z,145
2017-06-02T05:21:35.908Z,150
2017-06-02T05:22:36.903Z,150
2017-06-02T05:23:35.599Z,150
2017-06-02T05:24:36.849Z,155
2017-06-02T05:25:36.583Z,155
2017-06-02T05:26:36.217Z,155
2017-06-02T05:27:36.516Z,155
2017-06-02T05:28:36.532Z,155
2017-06-02T05:29:36.520Z,155
2017-06-02T05:30:36.832Z,155
2017-06-02T05:31:36.527Z,155
2017-06-02T05:32:36.488Z,160
2017-06-02T05:33:36.480Z,160
2017-06-02T05:34:36.794Z,165
2017-06-02T05:35:36.485Z,165
2017-06-02T05:36:36.458Z,165
2017-06-02T05:37:36.133Z,165
2017-06-02T05:38:36.452Z,165
2017-06-02T05:39:35.833Z,165
2017-06-02T05:40:36.124Z,165
2017-06-02T05:41:36.755Z,165
2017-06-02T05:42:36.772Z,165
2017-06-02T05:43:36.421Z,165
2017-06-02T05:44:36.129Z,165
2017-06-02T05:45:36.741Z,165
2017-06-02T05:46:36.083Z,165
2017-06-02T05:47:36.735Z,165
2017-06-02T05:48:36.742Z,165
2017-06-02T05:49:36.071Z,165
2017-06-02T05:50:36.061Z,165
2017-06-02T05:51:36.382Z,170
2017-06-02T05:52:36.066Z,175
2017-06-02T05:53:36.053Z,170
2017-06-02T05:54:36.451Z,170
2017-06-02T05:55:36.038Z,170
2017-06-02T05:56:36.055Z,170
2017-06-02T05:57:36.037Z,170
2017-06-02T05:58:36.033Z,170
2017-06-02T05:59:36.698Z,170
2017-06-02T06:00:36.013Z,175
2017-06-02T06:01:36.669Z,175
2017-06-02T06:02:36.008Z,175
2017-06-02T06:03:35.708Z,175
2017-06-02T06:04:36.018Z,175
2017-06-02T06:05:36.025Z,175
2017-06-02T06:06:36.002Z,175
2017-06-02T06:07:35.992Z,175
2017-06-02T06:08:36.317Z,175
2017-06-02T06:09:36.628Z,180
2017-06-02T06:10:36.295Z,180
2017-06-02T06:11:36.315Z,180
2017-06-02T06:12:36.018Z,180
2017-06-02T06:13:35.958Z,180
2017-06-02T06:14:36.011Z,180
2017-06-02T06:15:36.315Z,185
2017-06-02T06:16:36.651Z,185
2017-06-02T06:17:36.268Z,185
2017-06-02T06:18:36.605Z,185
2017-06-02T06:19:35.944Z,185
2017-06-02T06:20:35.610Z,185
2017-06-02T06:21:35.604Z,185
2017-06-02T06:22:36.254Z,185
2017-06-02T06:23:35.608Z,185
2017-06-02T06:24:36.563Z,190
2017-06-02T06:25:35.911Z,190
2017-06-02T06:26:35.590Z,190
2017-06-02T06:27:36.233Z,190
2017-06-02T06:28:35.904Z,190
2017-06-02T06:29:36.547Z,190
2017-06-02T06:30:36.552Z,195
2017-06-02T06:31:36.221Z,195
2017-06-02T06:32:36.236Z,200
2017-06-02T06:33:35.919Z,210
2017-06-02T06:34:36.232Z,215
2017-06-02T06:35:35.554Z,240
2017-06-02T06:36:35.565Z,260
2017-06-02T06:37:35.575Z,320
2017-06-02T06:38:35.884Z,410
2017-06-02T06:39:35.905Z,450
2017-06-02T06:40:36.195Z,435
2017-06-02T06:41:36.199Z,445
2017-06-02T06:42:35.560Z,450
2017-06-02T06:43:35.856Z,460
2017-06-02T06:44:36.237Z,530
2017-06-02T06:45:36.181Z,585
2017-06-02T06:46:36.205Z,625
2017-06-02T06:47:35.877Z,660
2017-06-02T06:48:36.239Z,705
2017-06-02T06:49:36.248Z,710
2017-06-02T06:50:36.541Z,665
2017-06-02T06:51:36.203Z,625
2017-06-02T06:52:35.862Z,585
2017-06-02T06:53:35.860Z,560
2017-06-02T06:54:35.871Z,550
2017-06-02T06:55:36.189Z,555
2017-06-02T06:56:36.180Z,575
2017-06-02T06:57:36.194Z,600
2017-06-02T06:58:35.579Z,620
2017-06-02T06:59:36.193Z,635
2017-06-02T07:00:36.207Z,720
2017-06-02T07:01:37.077Z,755
2017-06-02T07:02:36.530Z,680
2017-06-02T07:03:35.894Z,615
2017-06-02T07:04:36.544Z,600
2017-06-02T07:05:36.242Z,595
2017-06-02T07:06:36.225Z,590
2017-06-02T07:07:35.920Z,610
2017-06-02T07:08:35.947Z,605
2017-06-02T07:09:36.242Z,600
2017-06-02T07:10:35.926Z,615
2017-06-02T07:11:36.260Z,605
2017-06-02T07:12:36.258Z,595
2017-06-02T07:13:36.278Z,585
2017-06-02T07:14:36.269Z,595
2017-06-02T07:15:36.601Z,585
2017-06-02T07:16:35.965Z,580
2017-06-02T07:17:36.293Z,580
2017-06-02T07:18:35.982Z,560
2017-06-02T07:19:36.627Z,545
2017-06-02T07:20:36.350Z,520
2017-06-02T07:21:36.000Z,525
2017-06-02T07:22:35.682Z,530
2017-06-02T07:23:36.359Z,535
2017-06-02T07:24:35.708Z,530
2017-06-02T07:25:36.352Z,525
2017-06-02T07:26:36.396Z,535
2017-06-02T07:27:36.065Z,545
2017-06-02T07:28:36.307Z,535
2017-06-02T07:29:36.086Z,520
2017-06-02T07:30:36.414Z,515
2017-06-02T07:31:36.723Z,520
2017-06-02T07:32:36.430Z,530
2017-06-02T07:33:36.093Z,535
2017-06-02T07:34:36.102Z,530
2017-06-02T07:35:35.789Z,530
2017-06-02T07:36:36.439Z,535
2017-06-02T07:37:36.456Z,540
2017-06-02T07:38:36.799Z,545
2017-06-02T07:39:36.491Z,545
2017-06-02T07:40:36.194Z,555
2017-06-02T07:41:36.491Z,570
2017-06-02T07:42:36.527Z,560
2017-06-02T07:43:36.538Z,570
2017-06-02T07:44:36.192Z,575
2017-06-02T07:45:36.229Z,545
2017-06-02T07:46:36.537Z,435
2017-06-02T07:47:36.545Z,320
2017-06-02T07:48:35.953Z,285
2017-06-02T07:49:36.240Z,265
2017-06-02T07:50:36.593Z,260
2017-06-02T07:51:36.925Z,250
2017-06-02T07:52:36.605Z,250
2017-06-02T07:53:36.599Z,245
2017-06-02T07:54:36.685Z,245
2017-06-02T07:55:36.630Z,245
2017-06-02T07:56:36.307Z,245
2017-06-02T07:57:36.318Z,245
2017-06-02T07:58:36.986Z,250
2017-06-02T07:59:37.064Z,245
2017-06-02T08:00:36.687Z,245
2017-06-02T08:01:36.346Z,245
2017-06-02T08:02:36.690Z,245
2017-06-02T08:03:36.042Z,245
2017-06-02T08:04:36.050Z,245
2017-06-02T08:05:36.702Z,240
2017-06-02T08:06:36.116Z,235
2017-06-02T08:07:36.720Z,235
2017-06-02T08:08:36.429Z,235
2017-06-02T08:09:36.759Z,240
2017-06-02T08:10:36.428Z,235
2017-06-02T08:11:36.447Z,230
2017-06-02T08:12:36.439Z,230
2017-06-02T08:13:36.765Z,225
2017-06-02T08:14:36.450Z,225
2017-06-02T08:15:36.774Z,220
2017-06-02T08:16:36.478Z,225
2017-06-02T08:17:37.115Z,225
2017-06-02T08:18:36.849Z,225
2017-06-02T08:19:36.808Z,225
2017-06-02T08:20:36.817Z,230
2017-06-02T08:21:36.823Z,230
2017-06-02T08:22:36.518Z,230
2017-06-02T08:23:36.514Z,230
2017-06-02T08:24:36.832Z,230
2017-06-02T08:25:36.579Z,230
2017-06-02T08:26:36.538Z,230
2017-06-02T08:27:37.213Z,230
2017-06-02T08:28:37.183Z,230
2017-06-02T08:29:37.189Z,230
2017-06-02T08:30:36.221Z,230
2017-06-02T08:31:36.570Z,240
2017-06-02T08:32:36.886Z,235
2017-06-02T08:33:36.555Z,240
2017-06-02T08:34:36.574Z,235
2017-06-02T08:35:36.582Z,235
2017-06-02T08:36:36.893Z,235
2017-06-02T08:37:36.898Z,235
2017-06-02T08:38:37.260Z,235
2017-06-02T08:39:37.266Z,235
2017-06-02T08:40:36.978Z,235
2017-06-02T08:41:36.948Z,235
2017-06-02T08:42:36.947Z,235
2017-06-02T08:43:36.595Z,245
2017-06-02T08:44:36.627Z,245
2017-06-02T08:45:36.922Z,255
2017-06-02T08:46:36.938Z,265
2017-06-02T08:47:36.929Z,265
2017-06-02T08:48:37.267Z,270
2017-06-02T08:49:36.951Z,265
2017-06-02T08:50:36.638Z,270
2017-06-02T08:51:36.969Z,275
2017-06-02T08:52:36.995Z,280
2017-06-02T08:53:36.956Z,270
2017-06-02T08:54:37.015Z,260
2017-06-02T08:55:36.955Z,260
2017-06-02T08:56:36.649Z,260
2017-06-02T08:57:36.977Z,265
2017-06-02T08:58:36.979Z,260
2017-06-02T08:59:36.974Z,255
2017-06-02T09:00:37.292Z,260
2017-06-02T09:01:36.665Z,260
2017-06-02T09:02:36.976Z,260
2017-06-02T09:03:36.345Z,260
2017-06-02T09:04:36.655Z,265
2017-06-02T09:05:37.321Z,260
2017-06-02T09:06:36.687Z,265
2017-06-02T09:07:36.998Z,265
2017-06-02T09:08:37.011Z,265
2017-06-02T09:09:37.011Z,265
2017-06-02T09:10:37.322Z,265
2017-06-02T09:11:36.999Z,260
2017-06-02T09:12:37.356Z,255
2017-06-02T09:13:37.343Z,255
2017-06-02T09:14:36.701Z,255
2017-06-02T09:15:37.010Z,265
2017-06-02T09:16:37.361Z,280
2017-06-02T09:17:36.697Z,300
2017-06-02T09:18:37.021Z,305
2017-06-02T09:19:37.026Z,300
2017-06-02T09:20:37.396Z,290
2017-06-02T09:21:36.384Z,285
2017-06-02T09:22:36.437Z,285
2017-06-02T09:23:37.030Z,280
2017-06-02T09:24:36.390Z,265
2017-06-02T09:25:37.039Z,245
2017-06-02T09:26:37.059Z,235
2017-06-02T09:27:37.064Z,225
2017-06-02T09:28:37.048Z,215
2017-06-02T09:29:37.063Z,205
2017-06-02T09:30:36.745Z,200
2017-06-02T09:31:36.736Z,220
2017-06-02T09:32:37.070Z,230
2017-06-02T09:33:36.757Z,235
2017-06-02T09:34:37.095Z,240
2017-06-02T09:35:36.110Z,245
2017-06-02T09:36:37.392Z,250
2017-06-02T09:37:37.442Z,255
2017-06-02T09:38:36.748Z,260
2017-06-02T09:39:37.074Z,265
2017-06-02T09:40:36.773Z,270
2017-06-02T09:41:36.755Z,265
2017-06-02T09:42:36.757Z,255
2017-06-02T09:43:37.099Z,270
2017-06-02T09:44:36.771Z,260
2017-06-02T09:45:37.091Z,250
2017-06-02T09:46:37.127Z,250
2017-06-02T09:47:36.774Z,250
2017-06-02T09:48:37.103Z,255
2017-06-02T09:49:36.804Z,255
2017-06-02T09:50:36.488Z,255
2017-06-02T09:51:36.786Z,265
2017-06-02T09:52:36.806Z,270
2017-06-02T09:53:36.813Z,270
2017-06-02T09:54:36.803Z,280
2017-06-02T09:55:37.433Z,295
2017-06-02T09:56:37.441Z,315
2017-06-02T09:57:36.800Z,320
2017-06-02T09:58:36.482Z,320
2017-06-02T09:59:37.458Z,315
2017-06-02T10:00:37.453Z,315
2017-06-02T10:01:36.813Z,295
2017-06-02T10:02:37.173Z,290
2017-06-02T10:03:37.479Z,290
2017-06-02T10:04:37.147Z,295
2017-06-02T10:05:37.486Z,300
2017-06-02T10:06:36.820Z,310
2017-06-02T10:07:36.537Z,320
2017-06-02T10:08:37.471Z,310
2017-06-02T10:09:37.202Z,315
2017-06-02T10:10:36.863Z,290
2017-06-02T10:11:37.229Z,270
2017-06-02T10:12:36.878Z,255
2017-06-02T10:13:37.202Z,245
2017-06-02T10:14:37.192Z,240
2017-06-02T10:15:36.851Z,235
2017-06-02T10:16:37.175Z,235
2017-06-02T10:17:37.190Z,230
2017-06-02T10:18:37.501Z,230
2017-06-02T10:19:37.515Z,230
2017-06-02T10:20:37.205Z,230
2017-06-02T10:21:37.184Z,235
2017-06-02T10:22:37.203Z,240
2017-06-02T10:23:37.521Z,240
2017-06-02T10:24:36.231Z,235
2017-06-02T10:25:36.899Z,225
2017-06-02T10:26:37.203Z,260
2017-06-02T10:27:36.882Z,270
2017-06-02T10:28:36.924Z,275
2017-06-02T10:29:36.912Z,280
2017-06-02T10:30:36.564Z,290
2017-06-02T10:31:37.221Z,290
2017-06-02T10:32:37.214Z,285
2017-06-02T10:33:37.264Z,290
2017-06-02T10:34:36.906Z,295
2017-06-02T10:35:37.239Z,300
2017-06-02T10:36:37.550Z,305
2017-06-02T10:37:37.271Z,315
2017-06-02T10:38:37.241Z,325
2017-06-02T10:39:36.596Z,325
2017-06-02T10:40:37.562Z,320
2017-06-02T10:41:37.572Z,320
2017-06-02T10:42:37.588Z,330
2017-06-02T10:43:36.602Z,350
2017-06-02T10:44:36.300Z,365
2017-06-02T10:45:36.927Z,390
2017-06-02T10:46:36.962Z,400
2017-06-02T10:47:36.949Z,385
2017-06-02T10:48:36.631Z,370
2017-06-02T10:49:37.262Z,375
2017-06-02T10:50:36.950Z,385
2017-06-02T10:51:36.958Z,385
2017-06-02T10:52:37.284Z,375
2017-06-02T10:53:36.987Z,360
2017-06-02T10:54:36.958Z,350
2017-06-02T10:55:37.443Z,350
2017-06-02T10:56:37.723Z,365
2017-06-02T10:57:37.610Z,350
2017-06-02T10:58:37.642Z,330
2017-06-02T10:59:37.322Z,325
2017-06-02T11:00:37.627Z,320
2017-06-02T11:01:36.662Z,310
2017-06-02T11:02:37.004Z,305
2017-06-02T11:03:37.309Z,305
2017-06-02T11:04:37.326Z,300
2017-06-02T11:05:36.696Z,295
2017-06-02T11:06:37.320Z,285
2017-06-02T11:07:37.352Z,270
2017-06-02T11:08:37.681Z,260
2017-06-02T11:09:37.034Z,255
2017-06-02T11:10:36.430Z,250
2017-06-02T11:11:37.679Z,245
2017-06-02T11:12:37.076Z,265
2017-06-02T11:13:37.345Z,265
2017-06-02T11:14:37.384Z,265
2017-06-02T11:15:37.074Z,270
2017-06-02T11:16:37.733Z,270
2017-06-02T11:17:36.725Z,265
2017-06-02T11:18:37.424Z,260
2017-06-02T11:19:36.793Z,225
2017-06-02T11:20:37.394Z,225
2017-06-02T11:21:36.419Z,225
2017-06-02T11:22:37.059Z,225
2017-06-02T11:23:37.370Z,250
2017-06-02T11:24:37.398Z,245
2017-06-02T11:25:37.420Z,250
2017-06-02T11:26:37.382Z,250
2017-06-02T11:27:37.458Z,250
2017-06-02T11:28:36.759Z,250
2017-06-02T11:29:37.393Z,255
2017-06-02T11:30:37.073Z,260
2017-06-02T11:31:37.074Z,260
2017-06-02T11:32:37.394Z,260
2017-06-02T11:33:37.146Z,260
2017-06-02T11:34:36.761Z,265
2017-06-02T11:35:36.769Z,270
2017-06-02T11:36:37.108Z,270
2017-06-02T11:37:37.117Z,275
2017-06-02T11:38:36.768Z,285
2017-06-02T11:39:36.793Z,290
2017-06-02T11:40:37.146Z,295
2017-06-02T11:41:36.800Z,315
2017-06-02T11:42:36.838Z,330
2017-06-02T11:43:37.273Z,365
2017-06-02T11:44:36.796Z,365
2017-06-02T11:45:37.437Z,360
2017-06-02T11:46:37.158Z,370
2017-06-02T11:47:37.195Z,375
2017-06-02T11:48:37.144Z,375
2017-06-02T11:49:37.803Z,355
2017-06-02T11:50:37.536Z,335
2017-06-02T11:51:37.465Z,330
2017-06-02T11:52:36.827Z,310
2017-06-02T11:53:37.478Z,310
2017-06-02T11:54:36.508Z,305
2017-06-02T11:55:37.467Z,270
2017-06-02T11:56:37.472Z,250
2017-06-02T11:57:37.476Z,250
2017-06-02T11:58:37.803Z,255
2017-06-02T11:59:37.476Z,275
2017-06-02T12:00:37.177Z,315
2017-06-02T12:01:37.492Z,315
2017-06-02T12:02:37.812Z,285
2017-06-02T12:03:37.813Z,275
2017-06-02T12:04:37.490Z,300
2017-06-02T12:05:37.499Z,320
2017-06-02T12:06:37.175Z,325
2017-06-02T12:07:37.200Z,350
2017-06-02T12:08:37.220Z,365
2017-06-02T12:09:37.549Z,360
2017-06-02T12:10:37.555Z,355
2017-06-02T12:11:37.557Z,345
2017-06-02T12:12:37.846Z,350
2017-06-02T12:13:37.569Z,350
2017-06-02T12:14:37.862Z,345
2017-06-02T12:15:37.570Z,325
2017-06-02T12:16:37.560Z,310
2017-06-02T12:17:37.920Z,285
2017-06-02T12:18:37.537Z,285
2017-06-02T12:19:37.545Z,290
2017-06-02T12:20:37.869Z,290
2017-06-02T12:21:37.550Z,270
2017-06-02T12:22:37.269Z,300
2017-06-02T12:23:37.256Z,300
2017-06-02T12:24:37.581Z,305
2017-06-02T12:25:37.296Z,290
2017-06-02T12:26:37.278Z,315
2017-06-02T12:27:37.257Z,315
2017-06-02T12:28:37.290Z,325
2017-06-02T12:29:37.278Z,325
2017-06-02T12:30:37.258Z,320
2017-06-02T12:31:37.619Z,315
2017-06-02T12:32:37.277Z,295
2017-06-02T12:33:37.284Z,275
2017-06-02T12:34:36.633Z,295
2017-06-02T12:35:36.953Z,330
2017-06-02T12:36:37.288Z,350
2017-06-02T12:37:37.608Z,345
2017-06-02T12:38:37.951Z,350
2017-06-02T12:39:37.610Z,340
2017-06-02T12:40:37.619Z,330
2017-06-02T12:41:37.632Z,330
2017-06-02T12:42:37.319Z,345
2017-06-02T12:43:37.385Z,360
2017-06-02T12:44:37.330Z,370
2017-06-02T12:45:37.663Z,385
2017-06-02T12:46:37.315Z,390
2017-06-02T12:47:37.658Z,375
2017-06-02T12:48:37.962Z,370
2017-06-02T12:49:37.985Z,370
2017-06-02T12:50:37.724Z,355
2017-06-02T12:51:36.716Z,345
2017-06-02T12:52:38.024Z,335
2017-06-02T12:53:37.032Z,320
2017-06-02T12:54:37.368Z,305
2017-06-02T12:55:37.390Z,290
2017-06-02T12:56:37.686Z,300
2017-06-02T12:57:37.365Z,305
2017-06-02T12:58:37.384Z,300
2017-06-02T12:59:37.708Z,315
2017-06-02T13:00:37.700Z,315
2017-06-02T13:01:37.398Z,330
2017-06-02T13:02:37.393Z,350
2017-06-02T13:03:38.070Z,375
2017-06-02T13:04:37.706Z,365
2017-06-02T13:05:37.402Z,360
2017-06-02T13:06:37.759Z,350
2017-06-02T13:07:37.742Z,335
2017-06-02T13:08:37.078Z,315
2017-06-02T13:09:37.742Z,300
2017-06-02T13:10:37.083Z,290
2017-06-02T13:11:37.754Z,290
2017-06-02T13:12:38.064Z,300
2017-06-02T13:13:37.114Z,315
2017-06-02T13:14:38.056Z,320
2017-06-02T13:15:37.742Z,340
2017-06-02T13:16:37.746Z,360
2017-06-02T13:17:37.422Z,345
2017-06-02T13:18:37.431Z,330
2017-06-02T13:19:37.445Z,320
2017-06-02T13:20:37.465Z,310
2017-06-02T13:21:37.799Z,290
2017-06-02T13:22:38.090Z,280
2017-06-02T13:23:37.471Z,270
2017-06-02T13:24:38.090Z,265
2017-06-02T13:25:37.471Z,265
2017-06-02T13:26:37.477Z,255
2017-06-02T13:27:38.106Z,245
2017-06-02T13:28:37.463Z,245
2017-06-02T13:29:37.176Z,255
2017-06-02T13:30:37.798Z,285
2017-06-02T13:31:37.813Z,300
2017-06-02T13:32:37.498Z,305
2017-06-02T13:33:37.481Z,310
2017-06-02T13:34:37.498Z,320
2017-06-02T13:35:37.810Z,330
2017-06-02T13:36:37.506Z,350
2017-06-02T13:37:37.831Z,365
2017-06-02T13:38:37.515Z,370
2017-06-02T13:39:38.134Z,380
2017-06-02T13:40:37.497Z,390
2017-06-02T13:41:37.524Z,390
2017-06-02T13:42:38.181Z,400
2017-06-02T13:43:37.869Z,395
2017-06-02T13:44:37.507Z,375
2017-06-02T13:45:38.169Z,360
2017-06-02T13:46:37.195Z,355
2017-06-02T13:47:38.193Z,350
2017-06-02T13:48:37.537Z,355
2017-06-02T13:49:38.174Z,350
2017-06-02T13:50:37.547Z,350
2017-06-02T13:51:37.865Z,360
2017-06-02T13:52:38.192Z,355
2017-06-02T13:53:37.872Z,350
2017-06-02T13:54:37.869Z,345
2017-06-02T13:55:37.556Z,330
2017-06-02T13:56:37.886Z,315
2017-06-02T13:57:37.571Z,295
2017-06-02T13:58:37.908Z,295
2017-06-02T13:59:37.580Z,280
2017-06-02T14:00:37.887Z,260
2017-06-02T14:01:37.890Z,220
2017-06-02T14:02:37.601Z,220